Time;durP1;ratioP1;P1;durP2;ratioP2;P2;SDS_P1;SDS_P2;PMS_P1;PMS_P2;Temp;Humidity;BMP_temperature;BMP_pressure;BME280_temperature;BME280_humidity;BME280_pressure;Samples;Min_cycle;Max_cycle;Signal;HPM_P1;HPM_P2
2022/09/11 00:01:22;;;;;;;2.63;1.53;;;;;;;20.59;67.45;100459.41;5031624;28;20828;-65
2022/09/11 00:03:47;;;;;;;4.30;1.57;;;;;;;20.57;67.80;100458.16;5049832;28;20410;-65
2022/09/11 00:06:15;;;;;;;3.87;1.43;;;;;;;20.57;67.60;100450.34;5015421;28;20176;-65
2022/09/11 00:08:41;;;;;;;3.87;1.43;;;;;;;20.46;68.13;100455.16;5049402;28;20231;-65
2022/09/11 00:11:11;;;;;;;4.93;1.23;;;;;;;20.51;68.25;100448.22;5031452;28;20434;-65
2022/09/11 00:13:37;;;;;;;4.90;1.73;;;;;;;20.56;67.78;100456.47;5031552;28;20271;-65
2022/09/11 00:16:04;;;;;;;4.53;1.43;;;;;;;20.47;68.02;100444.50;5031687;28;20497;-65
2022/09/11 00:18:29;;;;;;;3.60;1.50;;;;;;;20.53;67.41;100440.88;5049168;28;20195;-65
2022/09/11 00:20:56;;;;;;;3.10;1.23;;;;;;;20.54;67.80;100451.16;5049320;28;20422;-65
2022/09/11 00:23:23;;;;;;;5.47;1.90;;;;;;;20.43;68.24;100438.75;5047311;28;20636;-65
2022/09/11 00:25:49;;;;;;;7.63;2.27;;;;;;;20.44;68.42;100439.53;5045611;28;20471;-65
2022/09/11 00:28:16;;;;;;;11.90;1.70;;;;;;;20.51;67.85;100445.34;4997276;28;20669;-65
2022/09/11 00:30:43;;;;;;;2.33;1.23;;;;;;;20.56;67.63;100448.72;5027448;28;20751;-65
2022/09/11 00:33:11;;;;;;;4.00;1.30;;;;;;;20.53;67.93;100449.47;5044461;28;20480;-65
2022/09/11 00:35:36;;;;;;;2.63;1.27;;;;;;;20.56;67.67;100456.47;5044571;28;20460;-65
2022/09/11 00:38:02;;;;;;;2.27;1.10;;;;;;;20.52;67.95;100450.72;5046582;28;20455;-65
2022/09/11 00:40:27;;;;;;;4.07;1.40;;;;;;;20.56;67.51;100445.84;5048949;28;20199;-65
2022/09/11 00:42:54;;;;;;;5.97;1.37;;;;;;;20.57;67.66;100447.50;5030779;28;20175;-65
2022/09/11 00:45:24;;;;;;;5.70;1.83;;;;;;;20.57;67.82;100449.56;5048990;28;20163;-65
2022/09/11 00:47:50;;;;;;;11.83;1.90;;;;;;;20.50;68.16;100447.41;5014594;28;20417;-65
2022/09/11 00:50:18;;;;;;;12.77;1.50;;;;;;;20.51;68.02;100454.78;5049004;28;20784;-65
2022/09/11 00:53:00;;;;;;;3.30;1.20;;;;;;;20.55;67.86;100455.66;5030687;28;20190;-65
2022/09/11 00:55:27;;;;;;;6.17;1.33;;;;;;;20.55;68.19;100461.41;5048784;28;20429;-65
2022/09/11 00:57:57;;;;;;;3.13;1.10;;;;;;;20.46;68.19;100458.00;5026069;28;20787;-65
2022/09/11 01:00:38;;;;;;;5.50;1.53;;;;;;;20.46;68.31;100455.16;4995022;28;20434;-65
2022/09/11 01:03:03;;;;;;;4.73;1.40;;;;;;;20.52;67.88;100456.44;5015914;28;20519;-65
2022/09/11 01:05:33;;;;;;;3.83;1.10;;;;;;;20.55;67.96;100452.81;5011287;28;20408;-65
2022/09/11 01:07:58;;;;;;;6.03;1.70;;;;;;;20.52;68.27;100449.91;5013827;28;20232;-65
2022/09/11 01:10:46;;;;;;;2.83;1.23;;;;;;;20.55;67.90;100455.66;4999978;28;20468;-65
2022/09/11 01:13:24;;;;;;;3.23;1.50;;;;;;;20.49;68.00;100451.50;5042881;28;20643;-65
2022/09/11 01:16:02;;;;;;;4.60;1.40;;;;;;;20.44;68.43;100454.72;5047415;28;20909;-65
2022/09/11 01:18:37;;;;;;;2.03;1.10;;;;;;;20.53;67.92;100451.53;5048307;28;20519;-65
2022/09/11 01:21:20;;;;;;;3.40;1.20;;;;;;;20.53;68.28;100454.41;5029451;28;20418;-65
2022/09/11 01:24:08;;;;;;;2.27;1.30;;;;;;;20.46;68.09;100455.16;5030423;28;20696;-65
2022/09/11 01:26:57;;;;;;;3.97;1.43;;;;;;;20.55;68.12;100455.66;5030288;28;20426;-65
2022/09/11 01:29:57;;;;;;;3.90;1.27;;;;;;;20.56;67.81;100465.94;5047867;28;20476;-65
2022/09/11 01:32:26;;;;;;;4.63;1.37;;;;;;;20.46;68.28;100457.19;4998706;28;20446;-65
2022/09/11 01:34:59;;;;;;;5.53;1.57;;;;;;;20.52;68.04;100444.97;5030672;28;20945;-65
2022/09/11 01:37:30;;;;;;;5.63;1.87;;;;;;;20.56;68.29;100457.31;5014131;28;20429;-66
2022/09/11 01:39:59;;;;;;;6.10;1.37;;;;;;;20.56;68.01;100456.47;5030557;28;20456;-65
2022/09/11 01:42:25;;;;;;;2.93;1.20;;;;;;;20.49;68.15;100459.28;5030999;28;20556;-66
2022/09/11 01:44:56;;;;;;;5.43;1.53;;;;;;;20.52;68.10;100462.19;5048337;28;20402;-65
2022/09/11 01:47:22;;;;;;;6.20;1.60;;;;;;;20.55;68.35;100460.56;5030477;28;20418;-65
2022/09/11 01:49:50;;;;;;;3.03;1.00;;;;;;;20.46;68.23;100458.00;5048388;28;20884;-65
2022/09/11 01:52:21;;;;;;;6.77;2.30;;;;;;;20.53;67.96;100463.03;5048418;28;20795;-65
2022/09/11 01:55:02;;;;;;;5.37;1.50;;;;;;;20.56;67.65;100457.31;5030445;28;20784;-65
2022/09/11 01:57:35;;;;;;;2.53;1.47;;;;;;;20.56;68.03;100457.31;5013923;28;20494;-65
2022/09/11 02:00:01;;;;;;;8.30;1.47;;;;;;;20.54;67.88;100459.75;5012557;28;20773;-65
2022/09/11 02:02:37;;;;;;;5.20;1.40;;;;;;;20.56;68.15;100462.22;5029173;28;20438;-65
2022/09/11 02:05:08;;;;;;;7.53;1.20;;;;;;;20.50;68.28;100464.63;5047830;28;20198;-65
2022/09/11 02:07:40;;;;;;;5.63;1.13;;;;;;;20.53;67.96;100463.81;5015753;28;20472;-65
2022/09/11 02:10:11;;;;;;;4.53;1.40;;;;;;;20.55;68.10;100478.63;5050345;28;20402;-65
2022/09/11 02:12:40;;;;;;;5.43;1.67;;;;;;;20.55;68.05;100472.03;5034082;28;20463;-65
2022/09/11 02:15:06;;;;;;;4.37;1.40;;;;;;;20.54;68.25;100464.66;5017655;28;20754;-65
2022/09/11 02:17:58;;;;;;;6.23;1.37;;;;;;;20.55;67.98;100467.16;5051898;28;20428;-65
2022/09/11 02:20:24;;;;;;;3.10;1.30;;;;;;;20.54;68.02;100459.75;5051878;28;20437;-65
2022/09/11 02:22:50;;;;;;;4.50;1.37;;;;;;;20.56;67.78;100457.31;5033734;28;20529;-65
2022/09/11 02:25:15;;;;;;;5.03;1.37;;;;;;;20.54;68.05;100451.16;5033545;28;20417;-65
2022/09/11 02:27:41;;;;;;;3.90;1.67;;;;;;;20.51;68.18;100454.78;5033520;28;20233;-65
2022/09/11 02:30:07;;;;;;;3.80;1.70;;;;;;;20.53;68.20;100458.09;5025582;28;20188;-66
2022/09/11 02:32:35;;;;;;;3.70;1.30;;;;;;;20.54;68.07;100454.03;5033244;28;20576;-65
2022/09/11 02:35:00;;;;;;;6.50;1.60;;;;;;;20.55;67.80;100454.84;5051437;28;20415;-65
2022/09/11 02:37:50;;;;;;;3.60;1.60;;;;;;;20.55;67.86;100457.69;5033262;28;20453;-65
2022/09/11 02:40:36;;;;;;;4.87;1.30;;;;;;;20.53;67.87;100458.09;5051250;28;20206;-65
2022/09/11 02:43:14;;;;;;;5.47;1.67;;;;;;;20.53;67.96;100458.09;5050861;28;20398;-65
2022/09/11 02:45:53;;;;;;;2.90;1.40;;;;;;;20.53;68.07;100458.09;5034053;28;20429;-65
2022/09/11 02:48:35;;;;;;;2.93;1.47;;;;;;;20.54;67.73;100458.94;5051235;28;20810;-65
2022/09/11 02:51:06;;;;;;;4.77;1.50;;;;;;;20.55;67.77;100464.28;5051060;28;20430;-65
2022/09/11 02:53:31;;;;;;;4.70;1.50;;;;;;;20.57;67.73;100469.63;5050761;28;20745;-65
2022/09/11 02:56:11;;;;;;;4.30;1.33;;;;;;;20.55;68.21;100467.16;5050503;28;20501;-65
2022/09/11 02:58:46;;;;;;;4.10;1.23;;;;;;;20.56;67.87;100467.94;5013218;28;20219;-66
2022/09/11 03:01:11;;;;;;;3.80;1.60;;;;;;;20.52;67.71;100473.66;5013256;28;20465;-65
2022/09/11 03:03:42;;;;;;;5.67;1.50;;;;;;;20.53;68.10;100469.56;5015291;28;20420;-65
2022/09/11 03:06:10;;;;;;;7.37;1.67;;;;;;;20.55;67.85;100469.19;5013315;28;20180;-65
2022/09/11 03:08:36;;;;;;;4.53;1.27;;;;;;;20.54;67.97;100471.25;5013072;28;20845;-65
2022/09/11 03:11:01;;;;;;;3.10;1.47;;;;;;;20.54;67.78;100470.41;5041275;28;20541;-66
2022/09/11 03:13:27;;;;;;;7.70;1.30;;;;;;;20.53;67.94;100463.81;5029368;28;20184;-66
2022/09/11 03:15:53;;;;;;;4.97;1.40;;;;;;;20.55;67.83;100472.88;5039468;28;20167;-65
2022/09/11 03:18:18;;;;;;;6.87;1.87;;;;;;;20.55;67.69;100464.28;5050347;28;21107;-65
2022/09/11 03:20:47;;;;;;;3.90;1.60;;;;;;;20.55;67.71;100461.41;5032796;28;20549;-65
2022/09/11 03:23:13;;;;;;;4.43;1.70;;;;;;;20.54;67.63;100468.38;5050443;28;20164;-65
2022/09/11 03:25:39;;;;;;;4.47;1.40;;;;;;;20.54;67.94;100458.94;5048991;28;20468;-66
2022/09/11 03:28:04;;;;;;;4.13;1.60;;;;;;;20.54;67.66;100467.53;5049102;28;20229;-65
2022/09/11 03:30:30;;;;;;;6.47;1.33;;;;;;;20.54;67.96;100474.09;5050694;28;20688;-65
2022/09/11 03:32:57;;;;;;;4.20;1.70;;;;;;;20.54;67.89;100474.09;5048751;28;20195;-65
2022/09/11 03:35:24;;;;;;;6.10;1.77;;;;;;;20.54;67.71;100473.28;5049303;28;20183;-66
2022/09/11 03:37:49;;;;;;;3.40;1.40;;;;;;;20.52;67.84;100462.19;5048818;28;20541;-66
2022/09/11 03:40:15;;;;;;;6.87;1.53;;;;;;;20.54;67.53;100476.13;5031685;28;20429;-66
2022/09/11 03:42:40;;;;;;;5.80;1.77;;;;;;;20.55;67.83;100477.78;5032055;28;20187;-66
2022/09/11 03:45:06;;;;;;;6.00;1.27;;;;;;;20.55;67.78;100481.50;5015816;28;20184;-65
2022/09/11 03:47:31;;;;;;;5.13;1.80;;;;;;;20.56;67.71;100488.03;5049779;28;20183;-65
2022/09/11 03:49:57;;;;;;;4.03;1.27;;;;;;;20.55;67.81;100484.34;5049952;28;20175;-65
2022/09/11 03:52:22;;;;;;;2.20;1.20;;;;;;;20.55;67.45;100483.53;5032065;28;20254;-66
2022/09/11 03:54:48;;;;;;;4.17;1.70;;;;;;;20.55;67.78;100483.53;5032403;28;20525;-66
2022/09/11 03:57:14;;;;;;;4.40;1.30;;;;;;;20.56;67.63;100480.25;5050016;28;20176;-65
2022/09/11 03:59:39;;;;;;;2.90;1.17;;;;;;;20.55;67.66;100484.34;5031637;28;20191;-65
2022/09/11 04:02:04;;;;;;;6.03;1.70;;;;;;;20.56;67.59;100483.13;5031633;28;20295;-65
2022/09/11 04:04:30;;;;;;;4.17;1.53;;;;;;;20.56;67.71;100485.16;5049836;28;20176;-65
2022/09/11 04:06:55;;;;;;;4.50;1.70;;;;;;;20.56;67.68;100497.47;5032129;28;20180;-65
2022/09/11 04:09:21;;;;;;;8.70;1.70;;;;;;;20.55;67.65;100490.09;5049427;28;20219;-65
2022/09/11 04:11:47;;;;;;;3.47;1.37;;;;;;;20.56;67.55;100488.88;5049621;28;20669;-65
2022/09/11 04:14:12;;;;;;;5.50;1.80;;;;;;;20.56;67.82;100496.63;5049797;28;20172;-65
2022/09/11 04:16:38;;;;;;;5.43;1.70;;;;;;;20.56;67.49;100497.47;5049600;28;20172;-65
2022/09/11 04:19:03;;;;;;;3.97;1.97;;;;;;;20.56;67.82;100493.78;5049598;28;20191;-66
2022/09/11 04:21:28;;;;;;;4.30;1.50;;;;;;;20.56;67.58;100491.75;5049545;28;20207;-66
2022/09/11 04:23:55;;;;;;;5.00;1.50;;;;;;;20.56;67.43;100500.34;4998462;28;20202;-65
2022/09/11 04:26:22;;;;;;;4.00;1.73;;;;;;;20.54;67.37;100494.19;5049110;28;20622;-65
2022/09/11 04:28:47;;;;;;;2.50;1.40;;;;;;;20.54;67.98;100494.19;5048732;28;20818;-65
2022/09/11 04:31:13;;;;;;;6.43;1.33;;;;;;;20.55;67.89;100504.44;5047816;28;20483;-65
2022/09/11 04:33:39;;;;;;;7.80;2.30;;;;;;;20.55;67.83;100507.31;5048023;28;20172;-65
2022/09/11 04:36:09;;;;;;;3.17;1.30;;;;;;;20.54;67.34;100505.66;5049477;28;20254;-66
2022/09/11 04:38:35;;;;;;;6.63;1.33;;;;;;;20.53;67.87;100517.50;5047780;28;20866;-66
2022/09/11 04:41:05;;;;;;;8.20;1.90;;;;;;;20.53;67.67;100515.47;5040795;28;20484;-65
2022/09/11 04:43:31;;;;;;;3.67;1.80;;;;;;;20.53;67.72;100503.97;5014684;28;20553;-65
2022/09/11 04:46:01;;;;;;;3.23;1.33;;;;;;;20.53;67.76;100515.47;5014741;28;20421;-66
2022/09/11 04:48:26;;;;;;;6.73;1.47;;;;;;;20.53;67.56;100520.38;5029307;28;20198;-65
2022/09/11 04:51:03;;;;;;;10.20;2.40;;;;;;;20.52;67.72;100507.25;5012065;28;20477;-65
2022/09/11 04:53:28;;;;;;;2.40;1.50;;;;;;;20.52;67.69;100513.00;5013843;28;20186;-65
2022/09/11 04:56:07;;;;;;;3.33;1.40;;;;;;;20.54;67.67;100516.28;5030107;28;20800;-65
2022/09/11 04:58:33;;;;;;;4.90;1.50;;;;;;;20.54;67.56;100517.13;5009767;28;20285;-66
2022/09/11 05:00:59;;;;;;;4.43;1.50;;;;;;;20.56;67.85;100517.56;5028189;28;20459;-65
2022/09/11 05:03:24;;;;;;;8.50;2.30;;;;;;;20.54;67.50;100516.28;5010440;28;20295;-66
2022/09/11 05:05:50;;;;;;;4.73;2.03;;;;;;;20.51;67.83;100520.75;5030048;28;20188;-66
2022/09/11 05:08:17;;;;;;;5.37;2.03;;;;;;;20.48;67.76;100524.44;5028563;28;20684;-65
2022/09/11 05:10:43;;;;;;;6.47;1.70;;;;;;;20.48;67.67;100524.44;5019744;28;20183;-66
2022/09/11 05:13:09;;;;;;;2.37;1.70;;;;;;;20.46;67.80;100526.03;5031010;28;20497;-66
2022/09/11 05:15:34;;;;;;;3.63;1.80;;;;;;;20.47;67.92;100527.69;5048785;28;20585;-65
2022/09/11 05:17:59;;;;;;;6.03;1.90;;;;;;;20.45;67.83;100522.34;5048991;28;20666;-65
2022/09/11 05:20:25;;;;;;;3.93;2.10;;;;;;;20.44;67.73;100539.91;5048875;28;20180;-66
2022/09/11 05:22:52;;;;;;;6.60;2.43;;;;;;;20.45;67.83;100536.66;5030911;28;20172;-65
2022/09/11 05:25:17;;;;;;;5.13;2.10;;;;;;;20.44;67.60;100540.75;5046953;28;20654;-65
2022/09/11 05:27:43;;;;;;;6.60;1.90;;;;;;;20.44;67.53;100545.66;5046055;28;20505;-66
2022/09/11 05:30:09;;;;;;;4.00;2.13;;;;;;;20.44;67.64;100545.66;5046259;28;20258;-65
2022/09/11 05:32:35;;;;;;;3.43;2.10;;;;;;;20.43;67.82;100533.38;5046277;28;20183;-65
2022/09/11 05:35:00;;;;;;;7.13;3.20;;;;;;;20.43;67.54;100546.88;5047503;28;20422;-65
2022/09/11 05:37:25;;;;;;;7.03;3.27;;;;;;;20.38;67.63;100542.31;5047645;28;20178;-65
2022/09/11 05:39:51;;;;;;;6.13;2.50;;;;;;;20.42;68.09;100548.09;5046991;28;20207;-66
2022/09/11 05:42:16;;;;;;;5.63;2.60;;;;;;;20.43;67.45;100550.59;5052175;28;20184;-65
2022/09/11 05:44:42;;;;;;;5.00;2.60;;;;;;;20.38;67.51;100558.69;5034283;28;20525;-65
2022/09/11 05:47:08;;;;;;;8.73;2.60;;;;;;;20.40;67.59;100559.94;5034323;28;20176;-65
2022/09/11 05:49:33;;;;;;;5.43;2.87;;;;;;;20.42;67.68;100563.25;5033851;28;20599;-65
2022/09/11 05:51:59;;;;;;;6.23;2.90;;;;;;;19.98;69.17;100567.03;5017671;28;20188;-65
2022/09/11 05:54:25;;;;;;;5.50;2.77;;;;;;;20.24;68.41;100572.78;5034058;28;20178;-65
2022/09/11 05:56:51;;;;;;;6.07;2.60;;;;;;;20.33;67.80;100574.19;5034004;28;20438;-65
2022/09/11 05:59:17;;;;;;;7.70;3.40;;;;;;;20.36;67.55;100581.19;5017840;28;20221;-66
2022/09/11 06:01:42;;;;;;;5.90;3.00;;;;;;;20.37;67.62;100586.53;5052154;28;20295;-66
2022/09/11 06:04:09;;;;;;;9.73;2.90;;;;;;;20.38;67.33;100587.34;5051762;28;20187;-66
2022/09/11 06:06:34;;;;;;;6.30;3.30;;;;;;;20.38;67.48;100593.94;5034158;28;20184;-65
2022/09/11 06:09:00;;;;;;;9.80;4.00;;;;;;;20.38;67.50;100596.81;5052080;28;20564;-65
2022/09/11 06:11:25;;;;;;;7.33;2.83;;;;;;;20.38;67.44;100596.81;5051667;28;20225;-66
2022/09/11 06:13:51;;;;;;;4.87;3.50;;;;;;;20.39;67.57;100600.47;5034178;28;20523;-66
2022/09/11 06:16:18;;;;;;;6.90;3.47;;;;;;;20.38;67.45;100607.44;5051305;28;20214;-66
2022/09/11 06:18:44;;;;;;;5.93;3.30;;;;;;;20.38;67.36;100605.41;5050392;28;20207;-66
2022/09/11 06:21:10;;;;;;;10.90;4.30;;;;;;;20.37;67.33;100603.72;5050452;28;20417;-66
2022/09/11 06:23:36;;;;;;;4.30;3.10;;;;;;;20.37;67.58;100609.47;5050312;28;20168;-65
2022/09/11 06:26:21;;;;;;;4.90;3.60;;;;;;;20.38;67.33;100608.28;5050047;28;20854;-66
2022/09/11 06:28:46;;;;;;;5.17;3.30;;;;;;;20.36;67.58;100610.69;5050375;28;20544;-65
2022/09/11 06:31:15;;;;;;;10.27;3.60;;;;;;;20.38;67.70;100616.03;5051454;28;20419;-65
2022/09/11 06:33:41;;;;;;;7.27;3.30;;;;;;;20.37;67.61;100608.66;5050107;28;20164;-65
2022/09/11 06:36:09;;;;;;;5.13;3.50;;;;;;;20.38;67.55;100608.28;5033403;28;20426;-65
2022/09/11 06:38:37;;;;;;;6.43;3.27;;;;;;;20.38;67.21;100608.28;5050198;28;20721;-65
2022/09/11 06:41:03;;;;;;;9.40;3.67;;;;;;;20.40;67.41;100608.69;5051314;28;20452;-65
2022/09/11 06:43:29;;;;;;;5.87;3.50;;;;;;;20.41;67.26;100607.47;5016876;28;20413;-65
2022/09/11 06:45:54;;;;;;;6.70;3.40;;;;;;;20.41;67.32;100613.22;5030108;28;20418;-66
2022/09/11 06:48:20;;;;;;;7.60;3.87;;;;;;;20.41;67.58;100610.34;5051320;28;20602;-66
2022/09/11 06:50:45;;;;;;;5.40;3.60;;;;;;;20.40;67.51;100614.44;5016214;28;20182;-65
2022/09/11 06:53:11;;;;;;;6.00;3.30;;;;;;;20.31;67.77;100616.75;5050981;28;20156;-65
2022/09/11 06:55:38;;;;;;;6.20;3.50;;;;;;;20.36;67.93;100610.69;5016806;28;20186;-65
2022/09/11 06:58:03;;;;;;;5.53;3.17;;;;;;;20.28;68.21;100608.94;5051037;28;20200;-65
2022/09/11 07:00:29;;;;;;;4.70;3.33;;;;;;;20.30;68.06;100615.09;5039124;28;20496;-66
2022/09/11 07:02:55;;;;;;;9.87;4.10;;;;;;;20.29;68.33;100610.59;5033579;28;20179;-65
2022/09/11 07:05:21;;;;;;;8.17;3.80;;;;;;;20.33;67.96;100608.59;5013049;28;20415;-66
2022/09/11 07:07:49;;;;;;;5.40;3.60;;;;;;;20.34;67.99;100616.00;5012922;28;20282;-66
2022/09/11 07:10:15;;;;;;;7.87;3.60;;;;;;;20.35;68.02;100602.47;5034577;28;20677;-66
2022/09/11 07:12:40;;;;;;;4.70;3.50;;;;;;;20.35;67.93;100605.31;5050951;28;20517;-66
2022/09/11 07:15:06;;;;;;;7.07;4.17;;;;;;;20.35;67.94;100608.19;5050756;28;20821;-65
2022/09/11 07:17:32;;;;;;;5.67;3.67;;;;;;;20.33;67.59;100602.88;5050466;28;20172;-65
2022/09/11 07:19:57;;;;;;;7.83;4.10;;;;;;;20.32;68.09;100615.53;5049975;28;20477;-65
2022/09/11 07:22:23;;;;;;;6.97;4.20;;;;;;;20.32;68.15;100617.59;5049418;28;20176;-65
2022/09/11 07:24:48;;;;;;;7.60;3.40;;;;;;;20.32;67.82;100615.53;5049616;28;20627;-65
2022/09/11 07:27:14;;;;;;;8.40;3.97;;;;;;;20.33;67.92;100620.06;5049858;28;20152;-65
2022/09/11 07:29:39;;;;;;;6.00;4.30;;;;;;;20.32;68.04;100621.25;5050667;28;20190;-65
2022/09/11 07:32:05;;;;;;;9.67;4.00;;;;;;;20.32;67.88;100618.41;5049111;28;20592;-65
2022/09/11 07:34:30;;;;;;;10.20;3.90;;;;;;;20.21;68.74;100619.47;5050621;28;20167;-66
2022/09/11 07:36:56;;;;;;;8.90;4.13;;;;;;;20.19;68.63;100631.31;5048187;28;20697;-65
2022/09/11 07:39:21;;;;;;;8.20;4.07;;;;;;;20.28;68.21;100626.13;5030314;28;20195;-66
2022/09/11 07:41:47;;;;;;;8.53;4.70;;;;;;;20.32;68.30;100629.88;5048274;28;20184;-65
2022/09/11 07:44:13;;;;;;;6.40;4.37;;;;;;;20.11;68.99;100629.50;5048648;28;20155;-65
2022/09/11 07:46:40;;;;;;;6.53;3.87;;;;;;;20.20;68.73;100635.81;5030382;28;20263;-65
2022/09/11 07:49:06;;;;;;;7.13;4.30;;;;;;;20.22;68.30;100642.00;5048491;28;20411;-65
2022/09/11 07:51:34;;;;;;;7.07;4.00;;;;;;;20.30;68.22;100646.63;5048301;28;20414;-65
2022/09/11 07:54:00;;;;;;;7.20;4.33;;;;;;;20.35;68.39;100645.47;5050231;28;21235;-66
2022/09/11 07:56:25;;;;;;;6.83;3.83;;;;;;;20.34;67.75;100643.81;5049918;28;20810;-65
2022/09/11 07:58:51;;;;;;;6.73;3.83;;;;;;;20.14;68.88;100645.97;5015614;28;20457;-66
2022/09/11 08:01:19;;;;;;;8.07;4.13;;;;;;;20.28;68.14;100651.94;5015446;28;20246;-65
2022/09/11 08:03:44;;;;;;;5.80;3.80;;;;;;;20.33;67.94;100647.91;5048928;28;20418;-65
2022/09/11 08:06:12;;;;;;;6.07;3.83;;;;;;;20.36;67.73;100647.97;5049678;28;20939;-65
2022/09/11 08:08:38;;;;;;;6.27;3.80;;;;;;;20.38;67.78;100656.19;5049585;28;20231;-65
2022/09/11 08:11:08;;;;;;;6.67;3.87;;;;;;;20.38;67.89;100651.28;5049522;28;20843;-65
2022/09/11 08:13:34;;;;;;;8.20;3.90;;;;;;;20.38;67.34;100641.84;5032387;28;20341;-65
2022/09/11 08:16:00;;;;;;;6.57;4.03;;;;;;;20.39;67.34;100650.06;5031665;28;20900;-65
2022/09/11 08:18:25;;;;;;;7.43;4.40;;;;;;;20.39;67.79;100646.38;5048532;28;20203;-65
2022/09/11 08:20:51;;;;;;;9.70;4.50;;;;;;;20.37;67.72;100646.75;5048495;28;20171;-65
2022/09/11 08:23:16;;;;;;;6.93;4.13;;;;;;;20.35;67.95;100645.47;5048685;28;20251;-65
2022/09/11 08:25:42;;;;;;;6.80;3.60;;;;;;;20.38;67.50;100654.16;5047350;28;20175;-65
2022/09/11 08:28:08;;;;;;;7.67;4.03;;;;;;;20.33;67.95;100665.13;5048355;28;20180;-65
2022/09/11 08:30:37;;;;;;;7.20;4.30;;;;;;;20.35;67.50;100656.94;5030764;28;20168;-65
2022/09/11 08:33:03;;;;;;;11.33;4.63;;;;;;;20.30;67.83;100657.28;5047246;28;20156;-65
2022/09/11 08:35:28;;;;;;;6.30;4.33;;;;;;;20.07;68.84;100660.16;5049499;28;20434;-65
2022/09/11 08:37:54;;;;;;;8.50;4.53;;;;;;;20.26;68.15;100657.22;5047494;28;20176;-65
2022/09/11 08:40:19;;;;;;;7.00;4.27;;;;;;;20.33;67.77;100663.09;5035378;28;20234;-66
2022/09/11 08:42:45;;;;;;;8.67;5.53;;;;;;;20.09;69.05;100660.63;5031783;28;20160;-65
2022/09/11 08:45:15;;;;;;;8.40;4.80;;;;;;;20.20;67.84;100661.63;5049798;28;20540;-65
2022/09/11 08:47:43;;;;;;;9.93;5.23;;;;;;;20.25;67.96;100658.44;5033473;28;20229;-65
2022/09/11 08:50:25;;;;;;;9.73;5.53;;;;;;;20.26;67.86;100670.75;5032934;28;20874;-65
2022/09/11 08:52:53;;;;;;;6.60;4.30;;;;;;;20.25;67.82;100677.66;5016255;28;20987;-65
2022/09/11 08:55:42;;;;;;;7.53;3.73;;;;;;;20.28;67.77;100680.63;5032247;28;20425;-65
2022/09/11 08:58:17;;;;;;;9.97;5.20;;;;;;;20.26;68.05;100674.41;5045573;28;20462;-65
2022/09/11 09:01:17;;;;;;;6.30;4.23;;;;;;;20.34;67.48;100678.22;5049062;28;20437;-65
2022/09/11 09:04:20;;;;;;;8.70;4.10;;;;;;;20.37;67.61;100681.16;5018012;28;20477;-64
2022/09/11 09:07:21;;;;;;;8.17;4.03;;;;;;;20.33;67.71;100679.44;5029835;28;20453;-65
2022/09/11 09:10:12;;;;;;;9.63;4.90;;;;;;;20.31;67.81;100679.03;5029534;28;20411;-65
2022/09/11 09:12:56;;;;;;;8.03;4.40;;;;;;;20.31;67.82;100671.22;5018014;28;20764;-65
2022/09/11 09:15:25;;;;;;;10.03;4.27;;;;;;;20.36;67.39;100675.84;5032861;28;20396;-65
2022/09/11 09:18:11;;;;;;;7.33;4.63;;;;;;;20.31;67.92;100674.09;5015540;28;20501;-65
2022/09/11 09:20:39;;;;;;;10.80;4.23;;;;;;;20.32;67.44;100680.66;5033329;28;20419;-65
2022/09/11 09:23:10;;;;;;;7.27;4.47;;;;;;;20.33;67.58;100668.81;5033367;28;20734;-65
2022/09/11 09:25:37;;;;;;;5.23;4.20;;;;;;;20.21;68.39;100676.78;5032928;28;20498;-65
2022/09/11 09:28:05;;;;;;;5.80;4.17;;;;;;;20.30;67.80;100671.59;5014983;28;20414;-66
2022/09/11 09:30:45;;;;;;;6.90;4.27;;;;;;;20.30;68.12;100672.44;5030959;28;20890;-66
2022/09/11 09:33:30;;;;;;;12.00;4.53;;;;;;;20.34;67.88;100673.34;5029469;28;20433;-67
2022/09/11 09:35:56;;;;;;;9.17;4.40;;;;;;;20.33;67.97;100682.31;5031604;28;20411;-66
2022/09/11 09:38:25;;;;;;;6.80;4.27;;;;;;;20.22;68.65;100669.84;5031120;28;20474;-64
2022/09/11 09:40:51;;;;;;;7.73;4.43;;;;;;;20.25;68.57;100674.78;5007817;28;20955;-67
2022/09/11 09:43:27;;;;;;;7.73;4.33;;;;;;;20.20;68.90;100678.81;5030485;28;20419;-66
2022/09/11 09:45:59;;;;;;;5.70;4.30;;;;;;;20.30;68.13;100678.19;5031038;28;20207;-64
2022/09/11 09:48:25;;;;;;;5.03;3.87;;;;;;;20.26;68.14;100680.16;5015372;28;20878;-64
2022/09/11 09:50:50;;;;;;;6.17;4.10;;;;;;;20.30;68.17;100677.34;5032554;28;20946;-64
2022/09/11 09:53:32;;;;;;;6.93;4.13;;;;;;;20.28;67.83;100674.88;5014322;28;20430;-64
2022/09/11 09:55:59;;;;;;;6.87;4.13;;;;;;;20.37;67.75;100671.75;5015192;28;20256;-64
2022/09/11 09:58:25;;;;;;;9.53;4.37;;;;;;;20.38;67.62;100667.66;5031867;28;20553;-64
2022/09/11 10:00:51;;;;;;;8.73;4.17;;;;;;;20.16;69.02;100666.47;4981768;28;20447;-64
2022/09/11 10:03:21;;;;;;;6.33;4.50;;;;;;;20.29;68.07;100670.78;5032030;28;20422;-64
2022/09/11 10:05:47;;;;;;;7.57;4.83;;;;;;;20.29;67.98;100665.06;5032307;28;20643;-64
2022/09/11 10:08:32;;;;;;;5.90;4.07;;;;;;;20.35;67.67;100668.41;5022582;28;20511;-64
2022/09/11 10:11:04;;;;;;;6.53;4.50;;;;;;;20.37;67.42;100661.06;5043459;28;20437;-66
2022/09/11 10:13:31;;;;;;;6.77;4.40;;;;;;;20.41;67.11;100659.09;5053962;28;20425;-64
2022/09/11 10:16:00;;;;;;;7.93;4.40;;;;;;;20.43;67.04;100659.56;5071925;28;20998;-64
2022/09/11 10:18:32;;;;;;;6.10;4.43;;;;;;;20.35;67.58;100649.19;5071862;28;20461;-64
2022/09/11 10:21:12;;;;;;;13.47;5.30;;;;;;;20.32;67.97;100646.25;5071641;28;20428;-65
2022/09/11 10:23:51;;;;;;;6.00;4.40;;;;;;;20.40;67.57;100643.13;5064624;28;20468;-64
2022/09/11 10:26:20;;;;;;;8.70;4.23;;;;;;;20.34;67.68;100644.66;5051007;28;20418;-64
2022/09/11 10:28:45;;;;;;;10.80;4.50;;;;;;;20.41;67.25;100641.09;5051543;28;20718;-64
2022/09/11 10:31:13;;;;;;;7.70;3.70;;;;;;;20.36;67.19;100630.75;5022202;28;20849;-64
2022/09/11 10:33:38;;;;;;;7.37;3.90;;;;;;;20.39;67.24;100637.75;5013467;28;20260;-64
2022/09/11 10:36:07;;;;;;;8.00;4.07;;;;;;;20.30;67.54;100635.16;5013688;28;20891;-64
2022/09/11 10:38:43;;;;;;;6.70;4.07;;;;;;;20.43;67.08;100636.63;4997542;28;20311;-64
2022/09/11 10:41:11;;;;;;;5.90;4.53;;;;;;;20.46;67.12;100638.69;5053934;28;20433;-64
2022/09/11 10:43:40;;;;;;;7.27;3.97;;;;;;;20.48;66.97;100629.72;5071235;28;20497;-64
2022/09/11 10:46:20;;;;;;;5.50;3.83;;;;;;;20.49;66.45;100631.38;5034749;28;20901;-64
2022/09/11 10:48:54;;;;;;;8.27;4.17;;;;;;;20.47;66.54;100626.00;5034892;28;20413;-64
2022/09/11 10:51:21;;;;;;;6.70;4.20;;;;;;;20.52;67.24;100627.72;5051527;28;20420;-64
2022/09/11 10:53:55;;;;;;;8.20;3.63;;;;;;;20.55;66.44;100624.06;5053409;28;20427;-64
2022/09/11 10:56:21;;;;;;;6.60;4.10;;;;;;;20.53;66.06;100624.44;5016506;28;20414;-65
2022/09/11 10:58:47;;;;;;;8.27;4.60;;;;;;;20.50;67.76;100628.13;5033568;28;20466;-66
2022/09/11 11:01:13;;;;;;;4.93;3.57;;;;;;;20.43;66.70;100630.88;5021387;28;20204;-66
2022/09/11 11:03:38;;;;;;;6.10;4.40;;;;;;;20.49;66.71;100632.22;5032168;28;20477;-65
2022/09/11 11:06:20;;;;;;;8.47;4.20;;;;;;;20.61;66.63;100626.22;5015170;28;20195;-65
2022/09/11 11:09:08;;;;;;;7.70;4.63;;;;;;;20.68;67.11;100632.06;5029070;28;20273;-64
2022/09/11 11:11:53;;;;;;;4.87;3.57;;;;;;;20.75;66.69;100625.59;5040884;28;20804;-64
2022/09/11 11:14:28;;;;;;;7.30;4.20;;;;;;;20.84;66.99;100632.72;5068853;28;20435;-64
2022/09/11 11:17:33;;;;;;;8.13;4.57;;;;;;;20.81;65.95;100627.75;5051231;28;20827;-64
2022/09/11 11:20:21;;;;;;;8.70;4.00;;;;;;;20.86;65.83;100636.03;5054688;28;20480;-64
2022/09/11 11:23:08;;;;;;;9.97;3.83;;;;;;;20.83;66.84;100630.25;5049457;28;20897;-64
2022/09/11 11:25:47;;;;;;;6.63;4.00;;;;;;;20.85;66.21;100640.13;5050494;28;20808;-64
2022/09/11 11:28:46;;;;;;;8.83;4.70;;;;;;;20.83;65.52;100633.09;5050118;28;20409;-64
2022/09/11 11:31:26;;;;;;;4.97;3.70;;;;;;;20.79;66.16;100627.31;5050239;28;20517;-64
2022/09/11 11:34:11;;;;;;;10.17;4.40;;;;;;;20.79;66.07;100626.50;5047648;28;20974;-63
2022/09/11 11:37:06;;;;;;;5.53;3.80;;;;;;;20.79;65.58;100621.59;5048586;28;20418;-64